sensor_id;sensor_type;location;lat;lon;timestamp;P1;durP1;ratioP1;P2;durP2;ratioP2
8230;SDS011;4156;50.908;6.974;2022-08-01T00:02:04;1.50;;;1.40;;
8230;SDS011;4156;50.908;6.974;2022-08-01T00:04:29;4.05;;;1.60;;
8230;SDS011;4156;50.908;6.974;2022-08-01T00:06:55;1.55;;;1.17;;
8230;SDS011;4156;50.908;6.974;2022-08-01T00:09:20;1.48;;;1.38;;
8230;SDS011;4156;50.908;6.974;2022-08-01T00:11:46;1.75;;;1.50;;
8230;SDS011;4156;50.908;6.974;2022-08-01T00:14:11;2.67;;;1.27;;
8230;SDS011;4156;50.908;6.974;2022-08-01T00:16:37;1.40;;;1.27;;
8230;SDS011;4156;50.908;6.974;2022-08-01T00:19:03;1.30;;;1.13;;
8230;SDS011;4156;50.908;6.974;2022-08-01T00:21:28;1.15;;;0.93;;
8230;SDS011;4156;50.908;6.974;2022-08-01T00:23:54;1.25;;;1.13;;
8230;SDS011;4156;50.908;6.974;2022-08-01T00:26:19;1.90;;;1.10;;
8230;SDS011;4156;50.908;6.974;2022-08-01T00:28:45;1.60;;;1.20;;
8230;SDS011;4156;50.908;6.974;2022-08-01T00:31:10;1.45;;;1.25;;
8230;SDS011;4156;50.908;6.974;2022-08-01T00:33:36;2.10;;;1.40;;
8230;SDS011;4156;50.908;6.974;2022-08-01T00:36:01;1.63;;;1.10;;
8230;SDS011;4156;50.908;6.974;2022-08-01T00:38:27;3.10;;;1.30;;
8230;SDS011;4156;50.908;6.974;2022-08-01T00:40:53;1.73;;;1.13;;
8230;SDS011;4156;50.908;6.974;2022-08-01T00:43:18;1.70;;;1.30;;
8230;SDS011;4156;50.908;6.974;2022-08-01T00:45:44;1.87;;;1.20;;
8230;SDS011;4156;50.908;6.974;2022-08-01T00:48:09;1.48;;;1.20;;
8230;SDS011;4156;50.908;6.974;2022-08-01T00:50:36;2.17;;;1.33;;
8230;SDS011;4156;50.908;6.974;2022-08-01T00:53:01;2.00;;;1.43;;
8230;SDS011;4156;50.908;6.974;2022-08-01T00:55:27;1.60;;;1.20;;
8230;SDS011;4156;50.908;6.974;2022-08-01T00:57:54;4.47;;;1.70;;
8230;SDS011;4156;50.908;6.974;2022-08-01T01:00:20;2.60;;;1.02;;
8230;SDS011;4156;50.908;6.974;2022-08-01T01:02:45;1.47;;;1.10;;
8230;SDS011;4156;50.908;6.974;2022-08-01T01:05:11;4.07;;;1.30;;
8230;SDS011;4156;50.908;6.974;2022-08-01T01:13:12;4.20;;;1.83;;
8230;SDS011;4156;50.908;6.974;2022-08-01T01:18:30;1.88;;;1.52;;
8230;SDS011;4156;50.908;6.974;2022-08-01T01:23:46;1.48;;;1.35;;
8230;SDS011;4156;50.908;6.974;2022-08-01T01:26:37;2.13;;;1.40;;
8230;SDS011;4156;50.908;6.974;2022-08-01T01:31:50;2.77;;;1.40;;
8230;SDS011;4156;50.908;6.974;2022-08-01T01:34:21;1.70;;;1.30;;
8230;SDS011;4156;50.908;6.974;2022-08-01T01:36:48;2.43;;;2.00;;
8230;SDS011;4156;50.908;6.974;2022-08-01T01:39:16;1.30;;;1.20;;
8230;SDS011;4156;50.908;6.974;2022-08-01T01:41:44;1.60;;;1.45;;
8230;SDS011;4156;50.908;6.974;2022-08-01T01:44:11;1.40;;;1.30;;
8230;SDS011;4156;50.908;6.974;2022-08-01T01:46:38;1.73;;;1.30;;
8230;SDS011;4156;50.908;6.974;2022-08-01T01:49:05;1.63;;;1.47;;
8230;SDS011;4156;50.908;6.974;2022-08-01T01:51:35;2.08;;;1.55;;
8230;SDS011;4156;50.908;6.974;2022-08-01T01:54:01;2.83;;;1.47;;
8230;SDS011;4156;50.908;6.974;2022-08-01T01:56:29;2.17;;;1.70;;
8230;SDS011;4156;50.908;6.974;2022-08-01T01:58:56;1.60;;;1.40;;
8230;SDS011;4156;50.908;6.974;2022-08-01T02:01:25;2.70;;;1.57;;
8230;SDS011;4156;50.908;6.974;2022-08-01T02:03:55;1.60;;;1.37;;
8230;SDS011;4156;50.908;6.974;2022-08-01T02:06:21;2.73;;;1.73;;
8230;SDS011;4156;50.908;6.974;2022-08-01T02:08:50;3.17;;;1.57;;
8230;SDS011;4156;50.908;6.974;2022-08-01T02:11:19;2.93;;;1.87;;
8230;SDS011;4156;50.908;6.974;2022-08-01T02:13:53;2.67;;;1.77;;
8230;SDS011;4156;50.908;6.974;2022-08-01T02:16:24;2.57;;;1.47;;
8230;SDS011;4156;50.908;6.974;2022-08-01T02:18:52;2.37;;;1.37;;
8230;SDS011;4156;50.908;6.974;2022-08-01T02:21:20;2.00;;;1.67;;
8230;SDS011;4156;50.908;6.974;2022-08-01T02:23:52;1.70;;;1.40;;
8230;SDS011;4156;50.908;6.974;2022-08-01T02:26:20;3.93;;;1.70;;
8230;SDS011;4156;50.908;6.974;2022-08-01T02:28:49;2.10;;;1.90;;
8230;SDS011;4156;50.908;6.974;2022-08-01T02:31:20;2.13;;;1.80;;
8230;SDS011;4156;50.908;6.974;2022-08-01T02:34:06;2.73;;;1.73;;
8230;SDS011;4156;50.908;6.974;2022-08-01T02:36:34;1.83;;;1.47;;
8230;SDS011;4156;50.908;6.974;2022-08-01T02:39:03;2.40;;;1.90;;
8230;SDS011;4156;50.908;6.974;2022-08-01T02:41:33;2.83;;;1.93;;
8230;SDS011;4156;50.908;6.974;2022-08-01T02:44:03;5.77;;;2.03;;
8230;SDS011;4156;50.908;6.974;2022-08-01T02:46:36;1.80;;;1.50;;
8230;SDS011;4156;50.908;6.974;2022-08-01T02:49:06;3.10;;;1.60;;
8230;SDS011;4156;50.908;6.974;2022-08-01T02:51:35;3.43;;;2.03;;
8230;SDS011;4156;50.908;6.974;2022-08-01T02:54:02;3.03;;;1.70;;
8230;SDS011;4156;50.908;6.974;2022-08-01T02:56:30;2.00;;;1.80;;
8230;SDS011;4156;50.908;6.974;2022-08-01T02:59:01;2.00;;;1.60;;
8230;SDS011;4156;50.908;6.974;2022-08-01T03:01:33;2.37;;;1.83;;
8230;SDS011;4156;50.908;6.974;2022-08-01T03:04:00;4.07;;;2.07;;
8230;SDS011;4156;50.908;6.974;2022-08-01T03:06:27;4.73;;;2.10;;
8230;SDS011;4156;50.908;6.974;2022-08-01T03:08:54;2.70;;;1.97;;
8230;SDS011;4156;50.908;6.974;2022-08-01T03:11:21;2.20;;;1.90;;
8230;SDS011;4156;50.908;6.974;2022-08-01T03:13:49;2.97;;;1.60;;
8230;SDS011;4156;50.908;6.974;2022-08-01T03:16:18;3.90;;;1.80;;
8230;SDS011;4156;50.908;6.974;2022-08-01T03:18:46;3.73;;;2.00;;
8230;SDS011;4156;50.908;6.974;2022-08-01T03:21:13;3.00;;;2.13;;
8230;SDS011;4156;50.908;6.974;2022-08-01T03:23:40;3.83;;;2.23;;
8230;SDS011;4156;50.908;6.974;2022-08-01T03:26:07;2.97;;;1.97;;
8230;SDS011;4156;50.908;6.974;2022-08-01T03:28:34;3.87;;;2.37;;
8230;SDS011;4156;50.908;6.974;2022-08-01T03:31:01;3.17;;;2.40;;
8230;SDS011;4156;50.908;6.974;2022-08-01T03:33:27;2.50;;;1.87;;
8230;SDS011;4156;50.908;6.974;2022-08-01T03:35:54;2.87;;;2.03;;
8230;SDS011;4156;50.908;6.974;2022-08-01T03:38:22;2.00;;;1.80;;
8230;SDS011;4156;50.908;6.974;2022-08-01T03:40:55;2.00;;;1.80;;
8230;SDS011;4156;50.908;6.974;2022-08-01T03:46:06;4.10;;;2.40;;
8230;SDS011;4156;50.908;6.974;2022-08-01T03:48:39;3.07;;;2.27;;
8230;SDS011;4156;50.908;6.974;2022-08-01T03:51:07;4.20;;;2.20;;
8230;SDS011;4156;50.908;6.974;2022-08-01T03:53:35;2.97;;;2.13;;
8230;SDS011;4156;50.908;6.974;2022-08-01T03:56:03;3.97;;;2.10;;
8230;SDS011;4156;50.908;6.974;2022-08-01T03:58:33;3.23;;;2.60;;
8230;SDS011;4156;50.908;6.974;2022-08-01T04:00:59;4.67;;;2.67;;
8230;SDS011;4156;50.908;6.974;2022-08-01T04:03:26;3.00;;;2.53;;
8230;SDS011;4156;50.908;6.974;2022-08-01T04:05:52;4.53;;;2.60;;
8230;SDS011;4156;50.908;6.974;2022-08-01T04:08:17;3.63;;;2.30;;
8230;SDS011;4156;50.908;6.974;2022-08-01T04:10:43;4.27;;;2.30;;
8230;SDS011;4156;50.908;6.974;2022-08-01T04:13:08;3.07;;;2.17;;
8230;SDS011;4156;50.908;6.974;2022-08-01T04:15:34;3.57;;;2.60;;
8230;SDS011;4156;50.908;6.974;2022-08-01T04:17:59;3.67;;;2.23;;
8230;SDS011;4156;50.908;6.974;2022-08-01T04:20:25;4.47;;;2.70;;
8230;SDS011;4156;50.908;6.974;2022-08-01T04:22:50;4.73;;;3.00;;
8230;SDS011;4156;50.908;6.974;2022-08-01T04:25:26;7.17;;;2.80;;
8230;SDS011;4156;50.908;6.974;2022-08-01T04:27:59;3.60;;;2.53;;
8230;SDS011;4156;50.908;6.974;2022-08-01T04:30:29;3.07;;;2.40;;
8230;SDS011;4156;50.908;6.974;2022-08-01T04:32:59;3.77;;;2.70;;
8230;SDS011;4156;50.908;6.974;2022-08-01T04:35:26;3.57;;;2.37;;
8230;SDS011;4156;50.908;6.974;2022-08-01T04:37:53;5.30;;;3.00;;
8230;SDS011;4156;50.908;6.974;2022-08-01T04:40:20;3.20;;;2.63;;
8230;SDS011;4156;50.908;6.974;2022-08-01T04:42:47;6.27;;;2.97;;
8230;SDS011;4156;50.908;6.974;2022-08-01T04:45:14;4.83;;;2.67;;
8230;SDS011;4156;50.908;6.974;2022-08-01T04:47:40;4.70;;;3.27;;
8230;SDS011;4156;50.908;6.974;2022-08-01T04:50:07;5.17;;;2.93;;
8230;SDS011;4156;50.908;6.974;2022-08-01T04:52:34;3.67;;;2.87;;
8230;SDS011;4156;50.908;6.974;2022-08-01T04:55:00;2.67;;;2.40;;
8230;SDS011;4156;50.908;6.974;2022-08-01T04:57:27;4.30;;;2.63;;
8230;SDS011;4156;50.908;6.974;2022-08-01T04:59:52;4.77;;;3.10;;
8230;SDS011;4156;50.908;6.974;2022-08-01T05:02:21;5.13;;;3.07;;
8230;SDS011;4156;50.908;6.974;2022-08-01T05:04:47;4.83;;;3.30;;
8230;SDS011;4156;50.908;6.974;2022-08-01T05:07:13;4.63;;;3.20;;
8230;SDS011;4156;50.908;6.974;2022-08-01T05:09:40;4.43;;;3.00;;
8230;SDS011;4156;50.908;6.974;2022-08-01T05:12:07;4.53;;;3.10;;
8230;SDS011;4156;50.908;6.974;2022-08-01T05:14:33;8.20;;;3.23;;
8230;SDS011;4156;50.908;6.974;2022-08-01T05:16:59;3.80;;;3.37;;
8230;SDS011;4156;50.908;6.974;2022-08-01T05:19:28;4.00;;;3.20;;
8230;SDS011;4156;50.908;6.974;2022-08-01T05:22:01;4.60;;;3.53;;
8230;SDS011;4156;50.908;6.974;2022-08-01T05:24:29;3.63;;;2.87;;
8230;SDS011;4156;50.908;6.974;2022-08-01T05:26:56;6.00;;;4.00;;
8230;SDS011;4156;50.908;6.974;2022-08-01T05:29:22;4.80;;;3.30;;
8230;SDS011;4156;50.908;6.974;2022-08-01T05:31:48;4.90;;;3.37;;
8230;SDS011;4156;50.908;6.974;2022-08-01T05:34:14;5.63;;;3.47;;
8230;SDS011;4156;50.908;6.974;2022-08-01T05:36:40;5.67;;;3.60;;
8230;SDS011;4156;50.908;6.974;2022-08-01T05:39:06;4.97;;;3.57;;
8230;SDS011;4156;50.908;6.974;2022-08-01T05:41:32;5.37;;;4.13;;
8230;SDS011;4156;50.908;6.974;2022-08-01T05:43:57;5.40;;;3.97;;
8230;SDS011;4156;50.908;6.974;2022-08-01T05:46:23;6.60;;;3.67;;
8230;SDS011;4156;50.908;6.974;2022-08-01T05:48:48;9.03;;;4.27;;
8230;SDS011;4156;50.908;6.974;2022-08-01T05:51:14;8.37;;;4.50;;
8230;SDS011;4156;50.908;6.974;2022-08-01T05:53:39;5.63;;;4.03;;
8230;SDS011;4156;50.908;6.974;2022-08-01T05:56:05;6.13;;;4.03;;
8230;SDS011;4156;50.908;6.974;2022-08-01T05:58:31;8.07;;;4.00;;
8230;SDS011;4156;50.908;6.974;2022-08-01T06:00:57;7.57;;;4.27;;
8230;SDS011;4156;50.908;6.974;2022-08-01T06:03:22;5.40;;;4.10;;
8230;SDS011;4156;50.908;6.974;2022-08-01T06:05:48;6.60;;;3.80;;
8230;SDS011;4156;50.908;6.974;2022-08-01T06:08:14;7.33;;;4.73;;
8230;SDS011;4156;50.908;6.974;2022-08-01T06:10:39;7.47;;;5.35;;
8230;SDS011;4156;50.908;6.974;2022-08-01T06:13:05;6.13;;;4.77;;
8230;SDS011;4156;50.908;6.974;2022-08-01T06:15:31;8.13;;;4.87;;
8230;SDS011;4156;50.908;6.974;2022-08-01T06:17:57;8.73;;;4.67;;
8230;SDS011;4156;50.908;6.974;2022-08-01T06:20:22;7.43;;;5.30;;
8230;SDS011;4156;50.908;6.974;2022-08-01T06:22:48;9.53;;;5.33;;
8230;SDS011;4156;50.908;6.974;2022-08-01T06:25:14;10.00;;;5.63;;
8230;SDS011;4156;50.908;6.974;2022-08-01T06:27:39;6.47;;;5.77;;
8230;SDS011;4156;50.908;6.974;2022-08-01T06:30:05;6.67;;;5.10;;
8230;SDS011;4156;50.908;6.974;2022-08-01T06:32:32;7.23;;;5.50;;
8230;SDS011;4156;50.908;6.974;2022-08-01T06:34:58;7.20;;;5.33;;
8230;SDS011;4156;50.908;6.974;2022-08-01T06:37:27;6.43;;;5.03;;
8230;SDS011;4156;50.908;6.974;2022-08-01T06:40:00;8.93;;;5.23;;
8230;SDS011;4156;50.908;6.974;2022-08-01T06:42:35;8.53;;;4.93;;
8230;SDS011;4156;50.908;6.974;2022-08-01T06:45:04;6.47;;;5.13;;
8230;SDS011;4156;50.908;6.974;2022-08-01T06:47:31;6.33;;;4.77;;
8230;SDS011;4156;50.908;6.974;2022-08-01T06:49:57;7.57;;;5.20;;
8230;SDS011;4156;50.908;6.974;2022-08-01T06:52:22;5.63;;;4.70;;
8230;SDS011;4156;50.908;6.974;2022-08-01T06:54:48;10.63;;;5.40;;
8230;SDS011;4156;50.908;6.974;2022-08-01T06:57:13;7.63;;;5.40;;
8230;SDS011;4156;50.908;6.974;2022-08-01T06:59:39;7.60;;;5.07;;
8230;SDS011;4156;50.908;6.974;2022-08-01T07:02:04;8.80;;;5.57;;
8230;SDS011;4156;50.908;6.974;2022-08-01T07:04:31;5.67;;;4.67;;
8230;SDS011;4156;50.908;6.974;2022-08-01T07:06:57;6.80;;;5.03;;
8230;SDS011;4156;50.908;6.974;2022-08-01T07:09:22;8.53;;;5.27;;
8230;SDS011;4156;50.908;6.974;2022-08-01T07:11:48;8.07;;;4.87;;
8230;SDS011;4156;50.908;6.974;2022-08-01T07:14:15;5.00;;;4.13;;
8230;SDS011;4156;50.908;6.974;2022-08-01T07:16:41;5.37;;;4.00;;
8230;SDS011;4156;50.908;6.974;2022-08-01T07:19:06;5.73;;;4.20;;
8230;SDS011;4156;50.908;6.974;2022-08-01T07:21:32;8.17;;;4.07;;
8230;SDS011;4156;50.908;6.974;2022-08-01T07:23:58;6.87;;;4.97;;
8230;SDS011;4156;50.908;6.974;2022-08-01T07:26:24;6.00;;;4.53;;
8230;SDS011;4156;50.908;6.974;2022-08-01T07:28:49;8.17;;;5.30;;
8230;SDS011;4156;50.908;6.974;2022-08-01T07:31:15;6.67;;;4.23;;
8230;SDS011;4156;50.908;6.974;2022-08-01T07:33:40;8.17;;;3.90;;
8230;SDS011;4156;50.908;6.974;2022-08-01T07:36:06;6.17;;;4.67;;
8230;SDS011;4156;50.908;6.974;2022-08-01T07:38:32;4.97;;;4.07;;
8230;SDS011;4156;50.908;6.974;2022-08-01T07:40:57;5.63;;;4.27;;
8230;SDS011;4156;50.908;6.974;2022-08-01T07:43:23;4.83;;;4.10;;
8230;SDS011;4156;50.908;6.974;2022-08-01T07:45:48;6.83;;;3.70;;
8230;SDS011;4156;50.908;6.974;2022-08-01T07:48:14;5.40;;;4.17;;
8230;SDS011;4156;50.908;6.974;2022-08-01T07:50:39;5.37;;;3.93;;
8230;SDS011;4156;50.908;6.974;2022-08-01T07:53:05;7.50;;;4.47;;
8230;SDS011;4156;50.908;6.974;2022-08-01T07:55:30;7.17;;;4.50;;
8230;SDS011;4156;50.908;6.974;2022-08-01T07:57:56;5.50;;;4.60;;
8230;SDS011;4156;50.908;6.974;2022-08-01T08:00:22;5.30;;;4.30;;
8230;SDS011;4156;50.908;6.974;2022-08-01T08:02:47;8.30;;;4.50;;
8230;SDS011;4156;50.908;6.974;2022-08-01T08:05:13;7.17;;;4.53;;
8230;SDS011;4156;50.908;6.974;2022-08-01T08:07:39;5.50;;;4.33;;
8230;SDS011;4156;50.908;6.974;2022-08-01T08:10:04;5.70;;;3.90;;
8230;SDS011;4156;50.908;6.974;2022-08-01T08:12:31;5.50;;;3.93;;
8230;SDS011;4156;50.908;6.974;2022-08-01T08:14:56;4.53;;;4.13;;
8230;SDS011;4156;50.908;6.974;2022-08-01T08:17:26;5.57;;;4.30;;
8230;SDS011;4156;50.908;6.974;2022-08-01T08:19:52;4.90;;;3.40;;
8230;SDS011;4156;50.908;6.974;2022-08-01T08:22:18;4.03;;;3.63;;
8230;SDS011;4156;50.908;6.974;2022-08-01T08:24:43;4.40;;;3.27;;
8230;SDS011;4156;50.908;6.974;2022-08-01T08:27:09;6.07;;;3.63;;
8230;SDS011;4156;50.908;6.974;2022-08-01T08:29:34;5.53;;;3.90;;
8230;SDS011;4156;50.908;6.974;2022-08-01T08:32:00;4.67;;;3.93;;
8230;SDS011;4156;50.908;6.974;2022-08-01T08:34:26;3.67;;;3.37;;
8230;SDS011;4156;50.908;6.974;2022-08-01T08:36:53;5.33;;;3.87;;
8230;SDS011;4156;50.908;6.974;2022-08-01T08:39:21;5.47;;;3.95;;
8230;SDS011;4156;50.908;6.974;2022-08-01T08:41:47;5.17;;;4.20;;
8230;SDS011;4156;50.908;6.974;2022-08-01T08:44:13;4.50;;;4.00;;
8230;SDS011;4156;50.908;6.974;2022-08-01T08:46:43;5.20;;;3.50;;
8230;SDS011;4156;50.908;6.974;2022-08-01T08:49:11;6.80;;;4.33;;
8230;SDS011;4156;50.908;6.974;2022-08-01T08:51:40;4.32;;;3.70;;
8230;SDS011;4156;50.908;6.974;2022-08-01T08:54:07;4.43;;;4.03;;
8230;SDS011;4156;50.908;6.974;2022-08-01T08:56:35;3.93;;;3.53;;
8230;SDS011;4156;50.908;6.974;2022-08-01T08:59:02;5.33;;;3.90;;
8230;SDS011;4156;50.908;6.974;2022-08-01T09:01:28;4.40;;;3.60;;
8230;SDS011;4156;50.908;6.974;2022-08-01T09:03:57;5.17;;;4.30;;
8230;SDS011;4156;50.908;6.974;2022-08-01T09:06:23;4.07;;;3.57;;
8230;SDS011;4156;50.908;6.974;2022-08-01T09:08:49;5.47;;;4.00;;
8230;SDS011;4156;50.908;6.974;2022-08-01T09:11:14;4.38;;;3.42;;
8230;SDS011;4156;50.908;6.974;2022-08-01T09:13:40;3.77;;;3.37;;
8230;SDS011;4156;50.908;6.974;2022-08-01T09:16:05;5.27;;;3.60;;
8230;SDS011;4156;50.908;6.974;2022-08-01T09:18:38;4.43;;;4.00;;
8230;SDS011;4156;50.908;6.974;2022-08-01T09:23:38;5.57;;;3.80;;
8230;SDS011;4156;50.908;6.974;2022-08-01T09:26:07;3.57;;;3.17;;
8230;SDS011;4156;50.908;6.974;2022-08-01T09:28:52;4.33;;;3.50;;
8230;SDS011;4156;50.908;6.974;2022-08-01T09:31:18;3.70;;;3.23;;
8230;SDS011;4156;50.908;6.974;2022-08-01T09:34:00;4.10;;;3.00;;
8230;SDS011;4156;50.908;6.974;2022-08-01T09:39:17;2.90;;;2.60;;
8230;SDS011;4156;50.908;6.974;2022-08-01T09:41:44;3.47;;;3.17;;
8230;SDS011;4156;50.908;6.974;2022-08-01T09:44:10;3.17;;;2.87;;
8230;SDS011;4156;50.908;6.974;2022-08-01T09:46:45;3.40;;;3.07;;
8230;SDS011;4156;50.908;6.974;2022-08-01T09:49:26;4.17;;;2.87;;
8230;SDS011;4156;50.908;6.974;2022-08-01T09:51:57;4.53;;;2.67;;
8230;SDS011;4156;50.908;6.974;2022-08-01T09:54:31;3.95;;;2.60;;
8230;SDS011;4156;50.908;6.974;2022-08-01T09:57:08;4.65;;;3.13;;
8230;SDS011;4156;50.908;6.974;2022-08-01T09:59:45;3.40;;;3.03;;
8230;SDS011;4156;50.908;6.974;2022-08-01T10:02:13;3.28;;;2.95;;
8230;SDS011;4156;50.908;6.974;2022-08-01T10:04:51;2.92;;;2.63;;
8230;SDS011;4156;50.908;6.974;2022-08-01T10:07:17;3.30;;;3.00;;
8230;SDS011;4156;50.908;6.974;2022-08-01T10:09:44;3.22;;;2.90;;
8230;SDS011;4156;50.908;6.974;2022-08-01T10:12:12;2.53;;;2.20;;
8230;SDS011;4156;50.908;6.974;2022-08-01T10:14:42;3.13;;;2.53;;
8230;SDS011;4156;50.908;6.974;2022-08-01T10:17:11;3.03;;;2.67;;
8230;SDS011;4156;50.908;6.974;2022-08-01T10:19:39;3.10;;;2.80;;
8230;SDS011;4156;50.908;6.974;2022-08-01T10:22:07;4.93;;;2.70;;
8230;SDS011;4156;50.908;6.974;2022-08-01T10:24:38;3.73;;;2.93;;
8230;SDS011;4156;50.908;6.974;2022-08-01T10:27:06;3.50;;;2.85;;
8230;SDS011;4156;50.908;6.974;2022-08-01T10:29:46;2.75;;;2.45;;
8230;SDS011;4156;50.908;6.974;2022-08-01T10:32:15;3.08;;;2.78;;
8230;SDS011;4156;50.908;6.974;2022-08-01T10:34:42;3.80;;;2.50;;
8230;SDS011;4156;50.908;6.974;2022-08-01T10:37:07;3.30;;;2.70;;
8230;SDS011;4156;50.908;6.974;2022-08-01T10:39:34;2.60;;;2.33;;
8230;SDS011;4156;50.908;6.974;2022-08-01T10:42:00;3.47;;;2.63;;
8230;SDS011;4156;50.908;6.974;2022-08-01T10:44:27;4.18;;;2.60;;
8230;SDS011;4156;50.908;6.974;2022-08-01T10:47:06;3.35;;;2.58;;
8230;SDS011;4156;50.908;6.974;2022-08-01T10:49:34;2.70;;;2.50;;
8230;SDS011;4156;50.908;6.974;2022-08-01T10:52:05;3.30;;;3.00;;
8230;SDS011;4156;50.908;6.974;2022-08-01T10:54:37;3.75;;;3.05;;
8230;SDS011;4156;50.908;6.974;2022-08-01T10:57:05;3.93;;;3.10;;
8230;SDS011;4156;50.908;6.974;2022-08-01T10:59:32;3.33;;;2.85;;
8230;SDS011;4156;50.908;6.974;2022-08-01T11:01:59;3.67;;;2.85;;
8230;SDS011;4156;50.908;6.974;2022-08-01T11:05:11;3.75;;;2.90;;
8230;SDS011;4156;50.908;6.974;2022-08-01T11:07:21;2.95;;;2.67;;
8230;SDS011;4156;50.908;6.974;2022-08-01T11:09:58;3.53;;;2.85;;
8230;SDS011;4156;50.908;6.974;2022-08-01T11:12:39;3.25;;;2.85;;
8230;SDS011;4156;50.908;6.974;2022-08-01T11:17:45;3.23;;;2.80;;
8230;SDS011;4156;50.908;6.974;2022-08-01T11:20:15;2.95;;;2.72;;
8230;SDS011;4156;50.908;6.974;2022-08-01T11:30:38;3.03;;;2.23;;
8230;SDS011;4156;50.908;6.974;2022-08-01T11:33:08;2.45;;;2.25;;
8230;SDS011;4156;50.908;6.974;2022-08-01T11:35:34;2.83;;;2.40;;
8230;SDS011;4156;50.908;6.974;2022-08-01T11:54:53;3.25;;;2.40;;
8230;SDS011;4156;50.908;6.974;2022-08-01T11:57:26;6.05;;;2.90;;
8230;SDS011;4156;50.908;6.974;2022-08-01T11:59:59;2.85;;;2.60;;
8230;SDS011;4156;50.908;6.974;2022-08-01T12:02:30;3.28;;;2.55;;
8230;SDS011;4156;50.908;6.974;2022-08-01T12:05:01;3.58;;;2.67;;
8230;SDS011;4156;50.908;6.974;2022-08-01T12:07:31;3.67;;;2.58;;
8230;SDS011;4156;50.908;6.974;2022-08-01T12:12:29;2.40;;;2.20;;
8230;SDS011;4156;50.908;6.974;2022-08-01T12:14:59;2.90;;;2.60;;
8230;SDS011;4156;50.908;6.974;2022-08-01T12:17:29;2.65;;;2.10;;
8230;SDS011;4156;50.908;6.974;2022-08-01T12:20:01;3.55;;;2.83;;
8230;SDS011;4156;50.908;6.974;2022-08-01T12:22:28;2.28;;;2.08;;
8230;SDS011;4156;50.908;6.974;2022-08-01T12:24:53;2.83;;;1.90;;
8230;SDS011;4156;50.908;6.974;2022-08-01T12:27:26;2.90;;;2.50;;
8230;SDS011;4156;50.908;6.974;2022-08-01T12:29:53;4.85;;;2.65;;
8230;SDS011;4156;50.908;6.974;2022-08-01T12:32:27;2.25;;;2.05;;
8230;SDS011;4156;50.908;6.974;2022-08-01T12:34:56;4.55;;;2.20;;
8230;SDS011;4156;50.908;6.974;2022-08-01T12:37:26;2.40;;;2.20;;
8230;SDS011;4156;50.908;6.974;2022-08-01T12:39:51;2.20;;;2.00;;
8230;SDS011;4156;50.908;6.974;2022-08-01T12:42:18;2.97;;;2.15;;
8230;SDS011;4156;50.908;6.974;2022-08-01T12:44:44;3.00;;;2.38;;
8230;SDS011;4156;50.908;6.974;2022-08-01T12:47:12;3.00;;;2.17;;
8230;SDS011;4156;50.908;6.974;2022-08-01T12:49:40;3.10;;;2.13;;
8230;SDS011;4156;50.908;6.974;2022-08-01T12:52:08;3.10;;;1.90;;
8230;SDS011;4156;50.908;6.974;2022-08-01T12:54:59;2.30;;;1.90;;
8230;SDS011;4156;50.908;6.974;2022-08-01T12:57:38;2.92;;;2.20;;
8230;SDS011;4156;50.908;6.974;2022-08-01T13:00:07;2.60;;;2.28;;
8230;SDS011;4156;50.908;6.974;2022-08-01T13:02:35;2.42;;;1.98;;
8230;SDS011;4156;50.908;6.974;2022-08-01T13:05:01;3.10;;;2.03;;
8230;SDS011;4156;50.908;6.974;2022-08-01T13:07:45;2.28;;;2.08;;
8230;SDS011;4156;50.908;6.974;2022-08-01T13:10:12;3.72;;;2.33;;
8230;SDS011;4156;50.908;6.974;2022-08-01T13:12:40;2.28;;;2.00;;
8230;SDS011;4156;50.908;6.974;2022-08-01T13:15:20;3.25;;;2.00;;
8230;SDS011;4156;50.908;6.974;2022-08-01T13:17:49;2.05;;;1.80;;
8230;SDS011;4156;50.908;6.974;2022-08-01T13:20:22;1.98;;;1.60;;
8230;SDS011;4156;50.908;6.974;2022-08-01T13:22:52;2.72;;;1.95;;
8230;SDS011;4156;50.908;6.974;2022-08-01T13:25:18;1.70;;;1.42;;
8230;SDS011;4156;50.908;6.974;2022-08-01T13:27:44;1.90;;;1.70;;
8230;SDS011;4156;50.908;6.974;2022-08-01T13:30:19;2.25;;;1.85;;
8230;SDS011;4156;50.908;6.974;2022-08-01T13:32:58;2.50;;;1.70;;
8230;SDS011;4156;50.908;6.974;2022-08-01T13:35:24;2.42;;;1.60;;
8230;SDS011;4156;50.908;6.974;2022-08-01T13:37:50;1.77;;;1.45;;
8230;SDS011;4156;50.908;6.974;2022-08-01T13:40:23;2.60;;;1.90;;
8230;SDS011;4156;50.908;6.974;2022-08-01T13:42:50;2.10;;;1.52;;
8230;SDS011;4156;50.908;6.974;2022-08-01T13:45:16;2.53;;;1.60;;
8230;SDS011;4156;50.908;6.974;2022-08-01T13:47:42;1.85;;;1.20;;
8230;SDS011;4156;50.908;6.974;2022-08-01T13:50:08;1.52;;;1.42;;
8230;SDS011;4156;50.908;6.974;2022-08-01T13:52:34;1.60;;;1.50;;
8230;SDS011;4156;50.908;6.974;2022-08-01T13:54:59;2.45;;;1.45;;
8230;SDS011;4156;50.908;6.974;2022-08-01T13:57:26;1.30;;;1.20;;
8230;SDS011;4156;50.908;6.974;2022-08-01T13:59:52;1.55;;;1.45;;
8230;SDS011;4156;50.908;6.974;2022-08-01T14:02:18;1.60;;;1.42;;
8230;SDS011;4156;50.908;6.974;2022-08-01T14:04:43;1.70;;;1.60;;
8230;SDS011;4156;50.908;6.974;2022-08-01T14:07:09;2.22;;;1.58;;
8230;SDS011;4156;50.908;6.974;2022-08-01T14:09:35;1.77;;;1.30;;
8230;SDS011;4156;50.908;6.974;2022-08-01T14:12:00;1.73;;;1.20;;
8230;SDS011;4156;50.908;6.974;2022-08-01T14:14:26;2.33;;;1.50;;
8230;SDS011;4156;50.908;6.974;2022-08-01T14:16:52;1.77;;;1.48;;
8230;SDS011;4156;50.908;6.974;2022-08-01T14:19:17;1.52;;;1.42;;
8230;SDS011;4156;50.908;6.974;2022-08-01T14:21:43;2.33;;;1.60;;
8230;SDS011;4156;50.908;6.974;2022-08-01T14:24:08;1.40;;;1.30;;
8230;SDS011;4156;50.908;6.974;2022-08-01T14:26:34;1.42;;;1.33;;
8230;SDS011;4156;50.908;6.974;2022-08-01T14:29:00;3.13;;;1.48;;
8230;SDS011;4156;50.908;6.974;2022-08-01T14:31:26;1.95;;;1.45;;
8230;SDS011;4156;50.908;6.974;2022-08-01T14:33:51;2.60;;;1.30;;
8230;SDS011;4156;50.908;6.974;2022-08-01T14:36:17;1.63;;;1.50;;
8230;SDS011;4156;50.908;6.974;2022-08-01T14:38:43;1.58;;;1.27;;
8230;SDS011;4156;50.908;6.974;2022-08-01T14:41:08;1.75;;;1.40;;
8230;SDS011;4156;50.908;6.974;2022-08-01T14:43:34;1.20;;;1.10;;
8230;SDS011;4156;50.908;6.974;2022-08-01T14:46:00;1.30;;;1.20;;
8230;SDS011;4156;50.908;6.974;2022-08-01T14:48:26;1.23;;;1.13;;
8230;SDS011;4156;50.908;6.974;2022-08-01T14:50:51;0.98;;;0.90;;
8230;SDS011;4156;50.908;6.974;2022-08-01T14:53:17;1.27;;;1.10;;
8230;SDS011;4156;50.908;6.974;2022-08-01T14:55:43;1.10;;;1.05;;
8230;SDS011;4156;50.908;6.974;2022-08-01T14:58:08;1.92;;;1.20;;
8230;SDS011;4156;50.908;6.974;2022-08-01T15:00:34;1.48;;;1.20;;
8230;SDS011;4156;50.908;6.974;2022-08-01T15:03:00;1.40;;;1.30;;
8230;SDS011;4156;50.908;6.974;2022-08-01T15:05:25;1.73;;;1.33;;
8230;SDS011;4156;50.908;6.974;2022-08-01T15:07:51;1.23;;;1.13;;
8230;SDS011;4156;50.908;6.974;2022-08-01T15:10:16;1.27;;;1.17;;
8230;SDS011;4156;50.908;6.974;2022-08-01T15:12:42;1.42;;;1.33;;
8230;SDS011;4156;50.908;6.974;2022-08-01T15:15:08;1.92;;;1.50;;
8230;SDS011;4156;50.908;6.974;2022-08-01T15:17:34;1.30;;;1.20;;
8230;SDS011;4156;50.908;6.974;2022-08-01T15:20:01;1.30;;;1.10;;
8230;SDS011;4156;50.908;6.974;2022-08-01T15:22:32;4.20;;;1.40;;
8230;SDS011;4156;50.908;6.974;2022-08-01T15:24:59;1.23;;;1.13;;
8230;SDS011;4156;50.908;6.974;2022-08-01T15:27:26;1.87;;;1.57;;
8230;SDS011;4156;50.908;6.974;2022-08-01T15:29:52;1.75;;;1.30;;
8230;SDS011;4156;50.908;6.974;2022-08-01T15:32:18;2.40;;;1.38;;
8230;SDS011;4156;50.908;6.974;2022-08-01T15:34:44;1.73;;;1.33;;
8230;SDS011;4156;50.908;6.974;2022-08-01T15:37:10;1.33;;;1.02;;
8230;SDS011;4156;50.908;6.974;2022-08-01T15:39:37;1.40;;;1.30;;
8230;SDS011;4156;50.908;6.974;2022-08-01T15:42:04;2.60;;;1.52;;
8230;SDS011;4156;50.908;6.974;2022-08-01T15:44:32;1.48;;;1.38;;
8230;SDS011;4156;50.908;6.974;2022-08-01T15:46:58;1.40;;;1.30;;
8230;SDS011;4156;50.908;6.974;2022-08-01T15:49:24;3.47;;;1.50;;
8230;SDS011;4156;50.908;6.974;2022-08-01T15:51:50;1.63;;;1.48;;
8230;SDS011;4156;50.908;6.974;2022-08-01T15:54:16;1.58;;;1.35;;
8230;SDS011;4156;50.908;6.974;2022-08-01T15:56:43;2.80;;;1.58;;
8230;SDS011;4156;50.908;6.974;2022-08-01T15:59:09;2.65;;;1.40;;
8230;SDS011;4156;50.908;6.974;2022-08-01T16:01:35;1.50;;;1.40;;
8230;SDS011;4156;50.908;6.974;2022-08-01T16:04:02;1.95;;;1.40;;
8230;SDS011;4156;50.908;6.974;2022-08-01T16:06:28;1.40;;;1.30;;
8230;SDS011;4156;50.908;6.974;2022-08-01T16:08:54;1.50;;;1.40;;
8230;SDS011;4156;50.908;6.974;2022-08-01T16:11:19;1.90;;;1.50;;